Time;durP1;ratioP1;P1;durP2;ratioP2;P2;SDS_P1;SDS_P2;PMS_P1;PMS_P2;Temp;Humidity;BMP_temperature;BMP_pressure;BME280_temperature;BME280_humidity;BME280_pressure;Samples;Min_cycle;Max_cycle;Signal;HPM_P1;HPM_P2
2021/04/26 00:00:45;;;;;;;;;;;;;;;22.50;36.16;102393.09;2162726;40;114752;-61
2021/04/26 00:02:16;;;;;;;;;;;;;;;22.50;36.21;102387.47;2164383;40;115994;-58
2021/04/26 00:03:48;;;;;;;;;;;;;;;22.50;36.29;102393.09;2164886;40;115569;-59
2021/04/26 00:05:19;;;;;;;;;;;;;;;22.46;36.08;102379.88;2172544;40;115881;-59
2021/04/26 00:06:51;;;;;;;;;;;;;;;22.46;36.20;102383.56;2166539;40;116226;-59
2021/04/26 00:08:22;;;;;;;;;;;;;;;22.48;36.43;102386.94;2166632;40;115980;-57
2021/04/26 00:09:53;;;;;;;;;;;;;;;22.47;36.15;102373.97;2165664;40;115454;-59
2021/04/26 00:11:24;;;;;;;;;;;;;;;22.47;36.38;102371.16;2169072;40;115854;-58
2021/04/26 00:12:55;;;;;;;;;;;;;;;22.43;36.29;102375.69;2167696;40;113897;-59
2021/04/26 00:14:46;;;;;;;;;;;;;;;22.45;36.01;102378.19;2167158;40;113864;-62
2021/04/26 00:16:17;;;;;;;;;;;;;;;22.45;36.32;102378.19;2167099;40;113645;-60
2021/04/26 00:17:49;;;;;;;;;;;;;;;22.44;35.94;102368.09;2166499;40;115622;-57
2021/04/26 00:19:20;;;;;;;;;;;;;;;22.44;36.05;102362.44;2151459;40;114507;-62
2021/04/26 00:20:51;;;;;;;;;;;;;;;22.43;36.07;102363.56;2168380;40;113816;-56
2021/04/26 00:22:23;;;;;;;;;;;;;;;22.43;35.71;102363.56;2161103;40;114510;-57
2021/04/26 00:23:54;;;;;;;;;;;;;;;22.41;36.12;102351.72;2162789;40;113827;-56
2021/04/26 00:25:25;;;;;;;;;;;;;;;22.39;35.92;102359.66;2157932;40;113782;-59
2021/04/26 00:26:57;;;;;;;;;;;;;;;22.40;35.86;102358.50;2165043;40;113950;-59
2021/04/26 00:28:28;;;;;;;;;;;;;;;22.39;36.02;102354.00;2167017;40;115755;-57
2021/04/26 00:29:59;;;;;;;;;;;;;;;22.38;36.11;102358.81;2164238;40;114206;-57
2021/04/26 00:31:30;;;;;;;;;;;;;;;22.38;36.02;102367.25;2167289;40;113644;-59
2021/04/26 00:33:02;;;;;;;;;;;;;;;22.35;36.09;102364.16;2167625;40;114027;-61
2021/04/26 00:34:33;;;;;;;;;;;;;;;22.34;35.92;102354.88;2166269;40;114783;-59
2021/04/26 00:36:04;;;;;;;;;;;;;;;22.34;36.06;102349.25;2158802;40;114873;-56
2021/04/26 00:37:36;;;;;;;;;;;;;;;22.34;35.95;102360.50;2170934;40;115065;-56
2021/04/26 00:39:07;;;;;;;;;;;;;;;22.34;36.01;102351.22;2158130;40;114797;-61
2021/04/26 00:40:39;;;;;;;;;;;;;;;22.32;36.04;102361.91;2160086;40;115292;-58
2021/04/26 00:42:10;;;;;;;;;;;;;;;22.29;36.10;102354.03;2165200;40;115005;-60
2021/04/26 00:43:41;;;;;;;;;;;;;;;22.30;35.82;102355.72;2167491;40;115546;-61
2021/04/26 00:45:14;;;;;;;;;;;;;;;22.29;35.80;102346.44;2168223;40;114900;-60
2021/04/26 00:46:45;;;;;;;;;;;;;;;22.27;36.12;102354.31;2166400;40;114165;-60
2021/04/26 00:48:16;;;;;;;;;;;;;;;22.27;36.18;102343.06;2165462;40;115371;-62
2021/04/26 00:49:47;;;;;;;;;;;;;;;22.25;35.99;102350.13;2165628;40;115301;-58
2021/04/26 00:51:19;;;;;;;;;;;;;;;22.25;35.87;102348.16;2167210;40;115404;-61
2021/04/26 00:52:50;;;;;;;;;;;;;;;22.25;36.03;102345.31;2167312;40;114950;-60
2021/04/26 00:54:21;;;;;;;;;;;;;;;22.24;35.99;102334.34;2166204;40;114977;-57
2021/04/26 00:55:52;;;;;;;;;;;;;;;22.21;36.16;102338.59;2155643;40;116476;-59
2021/04/26 00:57:24;;;;;;;;;;;;;;;22.20;36.06;102331.25;2163909;40;115750;-57
2021/04/26 00:58:55;;;;;;;;;;;;;;;22.21;35.79;102332.09;2168086;40;115680;-61
2021/04/26 01:00:27;;;;;;;;;;;;;;;22.20;35.80;102331.25;2167647;40;115603;-57
2021/04/26 01:01:58;;;;;;;;;;;;;;;22.20;35.56;102336.06;2167383;40;115440;-57
2021/04/26 01:03:29;;;;;;;;;;;;;;;22.19;35.80;102323.94;2168450;40;115817;-57
2021/04/26 01:05:01;;;;;;;;;;;;;;;22.17;35.94;102327.03;2164088;40;115929;-60
2021/04/26 01:06:32;;;;;;;;;;;;;;;22.16;36.12;102321.72;2164926;40;115594;-63
2021/04/26 01:08:03;;;;;;;;;;;;;;;22.15;35.85;102314.38;2161545;40;115564;-59
2021/04/26 01:09:34;;;;;;;;;;;;;;;22.13;35.69;102325.91;2165668;40;115710;-58
2021/04/26 01:11:06;;;;;;;;;;;;;;;22.14;36.11;102321.97;2167738;40;115427;-58
2021/04/26 01:12:42;;;;;;;;;;;;;;;22.16;35.94;102324.53;2160220;40;115605;-57
2021/04/26 01:14:26;;;;;;;;;;;;;;;22.14;35.90;102310.72;2167654;40;114620;-57
2021/04/26 01:16:07;;;;;;;;;;;;;;;22.13;36.10;102308.19;2158843;40;115472;-57
2021/04/26 01:17:43;;;;;;;;;;;;;;;22.13;36.21;102311.00;2167701;40;115659;-58
2021/04/26 01:19:23;;;;;;;;;;;;;;;22.10;36.20;102301.16;2167746;40;113873;-61
2021/04/26 01:20:54;;;;;;;;;;;;;;;22.11;36.16;102310.47;2167704;40;113750;-59
2021/04/26 01:22:35;;;;;;;;;;;;;;;22.09;36.11;102302.28;2167999;40;113651;-59
2021/04/26 01:24:16;;;;;;;;;;;;;;;22.08;36.20;102299.75;2168663;40;113608;-59
2021/04/26 01:25:55;;;;;;;;;;;;;;;22.09;36.16;102304.25;2168457;40;113640;-62
2021/04/26 01:27:37;;;;;;;;;;;;;;;22.10;36.04;102291.88;2167453;40;114213;-61
2021/04/26 01:29:18;;;;;;;;;;;;;;;22.06;36.37;102297.25;2168483;40;113735;-59
2021/04/26 01:30:59;;;;;;;;;;;;;;;22.06;36.26;102296.41;2173739;40;113752;-59
2021/04/26 01:32:32;;;;;;;;;;;;;;;22.06;36.39;102291.63;2169509;40;114285;-61
2021/04/26 01:34:04;;;;;;;;;;;;;;;22.03;36.51;102292.16;2173715;40;114091;-59
2021/04/26 01:35:35;;;;;;;;;;;;;;;22.05;36.29;102284.28;2170178;40;113800;-61
2021/04/26 01:37:08;;;;;;;;;;;;;;;22.06;36.47;102285.97;2173536;40;113839;-61
2021/04/26 01:38:40;;;;;;;;;;;;;;;22.06;36.36;102279.50;2169351;40;113661;-59
2021/04/26 01:40:13;;;;;;;;;;;;;;;22.03;36.60;102288.53;2176099;40;114037;-59
2021/04/26 01:41:45;;;;;;;;;;;;;;;22.04;36.23;102287.38;2163094;40;115319;-60
2021/04/26 01:43:18;;;;;;;;;;;;;;;22.03;36.27;102280.09;2169177;40;115108;-57
2021/04/26 01:44:49;;;;;;;;;;;;;;;22.01;36.54;102276.72;2166786;40;115264;-61
2021/04/26 01:46:21;;;;;;;;;;;;;;;22.02;36.32;102278.41;2161197;40;115080;-62
2021/04/26 01:47:54;;;;;;;;;;;;;;;22.00;36.57;102269.38;2171566;40;114936;-60
2021/04/26 01:49:26;;;;;;;;;;;;;;;22.00;36.61;102275.00;2169688;40;114342;-61
2021/04/26 01:50:58;;;;;;;;;;;;;;;21.97;36.20;102273.63;2161629;40;115427;-61
2021/04/26 01:52:29;;;;;;;;;;;;;;;21.99;36.56;102267.69;2161465;40;114679;-57
2021/04/26 01:54:01;;;;;;;;;;;;;;;21.97;36.61;102269.97;2166057;40;115474;-58
2021/04/26 01:55:32;;;;;;;;;;;;;;;21.97;36.54;102272.78;2171010;40;114863;-60
2021/04/26 01:57:04;;;;;;;;;;;;;;;21.97;36.58;102264.34;2163280;40;115349;-58
2021/04/26 01:58:44;;;;;;;;;;;;;;;21.96;36.25;102262.66;2171455;40;114554;-60
2021/04/26 02:00:16;;;;;;;;;;;;;;;21.94;36.53;102273.38;2166996;40;114859;-60
2021/04/26 02:01:50;;;;;;;;;;;;;;;21.93;36.36;102268.84;2169417;40;114758;-60
2021/04/26 02:03:22;;;;;;;;;;;;;;;21.93;36.53;102272.50;2166685;40;115776;-58
2021/04/26 02:04:54;;;;;;;;;;;;;;;21.92;36.83;102275.56;2166027;40;115531;-61
2021/04/26 02:06:26;;;;;;;;;;;;;;;21.92;36.47;102267.97;2168051;40;115622;-56
2021/04/26 02:07:59;;;;;;;;;;;;;;;21.92;36.53;102270.78;2162441;40;115551;-58
2021/04/26 02:09:31;;;;;;;;;;;;;;;21.90;36.85;102266.56;2167619;40;116310;-62
2021/04/26 02:11:02;;;;;;;;;;;;;;;21.92;36.73;102255.88;2165264;40;115378;-58
2021/04/26 02:12:34;;;;;;;;;;;;;;;21.91;36.65;102266.28;2173472;40;115813;-60
2021/04/26 02:14:05;;;;;;;;;;;;;;;21.91;36.67;102266.28;2169493;40;115524;-59
2021/04/26 02:15:37;;;;;;;;;;;;;;;21.87;36.90;102264.31;2161594;40;115731;-62
2021/04/26 02:17:09;;;;;;;;;;;;;;;21.87;36.90;102264.31;2168398;40;115498;-58
2021/04/26 02:18:40;;;;;;;;;;;;;;;21.88;36.81;102264.06;2158683;40;116077;-57
2021/04/26 02:20:12;;;;;;;;;;;;;;;21.88;36.83;102260.41;2165215;40;115471;-59
2021/04/26 02:21:43;;;;;;;;;;;;;;;21.87;36.53;102264.31;2167869;40;115612;-57
2021/04/26 02:23:15;;;;;;;;;;;;;;;21.86;36.42;102265.44;2170267;40;115760;-61
2021/04/26 02:24:46;;;;;;;;;;;;;;;21.88;36.75;102268.84;2168236;40;114190;-62
2021/04/26 02:26:17;;;;;;;;;;;;;;;21.85;36.72;102264.59;2168192;40;115490;-58
2021/04/26 02:27:48;;;;;;;;;;;;;;;21.83;36.92;102268.84;2167160;40;114275;-61
2021/04/26 02:29:19;;;;;;;;;;;;;;;21.82;36.78;102261.53;2168089;40;113703;-58
2021/04/26 02:30:53;;;;;;;;;;;;;;;21.81;36.51;102259.84;2167346;40;113992;-59
2021/04/26 02:32:27;;;;;;;;;;;;;;;21.80;36.73;102247.75;2167519;40;113807;-62
2021/04/26 02:34:02;;;;;;;;;;;;;;;21.79;36.76;102256.47;2165905;40;113928;-60
2021/04/26 02:35:33;;;;;;;;;;;;;;;21.77;36.86;102253.09;2165758;40;114165;-57
2021/04/26 02:37:08;;;;;;;;;;;;;;;21.77;36.39;102251.13;2162158;40;113915;-59
2021/04/26 02:38:43;;;;;;;;;;;;;;;21.77;36.57;102247.47;2163332;40;114029;-60
2021/04/26 02:40:14;;;;;;;;;;;;;;;21.76;36.68;102240.19;2164710;40;113742;-60
2021/04/26 02:41:47;;;;;;;;;;;;;;;21.76;36.91;102237.38;2163824;40;114302;-57
2021/04/26 02:43:19;;;;;;;;;;;;;;;21.76;36.46;102235.38;2167882;40;114168;-61
2021/04/26 02:44:51;;;;;;;;;;;;;;;21.76;36.51;102238.19;2168130;40;114296;-62
2021/04/26 02:46:24;;;;;;;;;;;;;;;21.73;36.40;102239.59;2169706;40;114463;-56
2021/04/26 02:47:55;;;;;;;;;;;;;;;21.76;36.33;102240.19;2168100;40;114826;-61
2021/04/26 02:49:28;;;;;;;;;;;;;;;21.74;36.26;102235.66;2168230;40;114531;-59
2021/04/26 02:50:59;;;;;;;;;;;;;;;21.72;36.69;102240.72;2165596;40;115458;-58
2021/04/26 02:52:32;;;;;;;;;;;;;;;21.71;36.45;102233.41;2165012;40;115227;-59
2021/04/26 02:54:04;;;;;;;;;;;;;;;21.69;36.63;102227.25;2168122;40;115014;-61
2021/04/26 02:55:35;;;;;;;;;;;;;;;21.67;36.35;102226.66;2164639;40;114389;-58
2021/04/26 02:57:07;;;;;;;;;;;;;;;21.69;36.80;102232.03;2157102;40;114891;-57
2021/04/26 02:58:39;;;;;;;;;;;;;;;21.68;36.26;102225.56;2161753;40;114931;-59
2021/04/26 03:00:13;;;;;;;;;;;;;;;21.68;36.33;102222.75;2165973;40;114878;-60
2021/04/26 03:01:44;;;;;;;;;;;;;;;21.69;36.30;102229.22;2167871;40;114439;-57
2021/04/26 03:03:15;;;;;;;;;;;;;;;21.67;36.68;102228.63;2168069;40;114797;-60
2021/04/26 03:04:47;;;;;;;;;;;;;;;21.67;36.63;102235.13;2166298;40;115289;-59
2021/04/26 03:06:19;;;;;;;;;;;;;;;21.66;36.65;102222.19;2163095;40;114988;-61
2021/04/26 03:07:50;;;;;;;;;;;;;;;21.65;36.46;102225.28;2164045;40;114859;-59
2021/04/26 03:09:22;;;;;;;;;;;;;;;21.66;36.58;102229.78;2165934;40;114553;-59
2021/04/26 03:10:53;;;;;;;;;;;;;;;21.64;36.47;102232.88;2157894;40;116267;-64
2021/04/26 03:12:24;;;;;;;;;;;;;;;21.62;36.45;102223.88;2157137;40;116134;-59
2021/04/26 03:13:56;;;;;;;;;;;;;;;21.62;36.40;102220.25;2160836;40;115691;-56
2021/04/26 03:15:28;;;;;;;;;;;;;;;21.62;36.50;102217.44;2163085;40;115556;-60
2021/04/26 03:16:59;;;;;;;;;;;;;;;21.61;36.34;102221.38;2163151;40;115590;-59
2021/04/26 03:18:32;;;;;;;;;;;;;;;21.61;36.41;102222.22;2164609;40;115564;-56
2021/04/26 03:20:04;;;;;;;;;;;;;;;21.58;36.58;102219.09;2175613;40;115682;-58
2021/04/26 03:21:36;;;;;;;;;;;;;;;21.56;36.62;102215.75;2157868;40;115995;-58
2021/04/26 03:23:09;;;;;;;;;;;;;;;21.55;36.33;102217.72;2163576;40;116001;-57
2021/04/26 03:24:41;;;;;;;;;;;;;;;21.55;36.57;102208.44;2160659;40;115797;-58
2021/04/26 03:26:12;;;;;;;;;;;;;;;21.55;36.21;102212.09;2157687;40;115650;-60
2021/04/26 03:27:45;;;;;;;;;;;;;;;21.55;36.56;102214.06;2170550;40;115664;-60
2021/04/26 03:29:17;;;;;;;;;;;;;;;21.52;36.55;102209.84;2163788;40;114749;-62
2021/04/26 03:30:48;;;;;;;;;;;;;;;21.53;36.79;102213.50;2158968;40;114011;-56
2021/04/26 03:32:20;;;;;;;;;;;;;;;21.53;36.42;102211.50;2159180;40;113732;-59
2021/04/26 03:33:51;;;;;;;;;;;;;;;21.52;36.51;102209.84;2166646;40;114625;-58
2021/04/26 03:35:23;;;;;;;;;;;;;;;21.52;36.56;102215.47;2161459;40;113725;-59
2021/04/26 03:36:54;;;;;;;;;;;;;;;21.52;36.46;102207.03;2164913;40;113929;-58
2021/04/26 03:38:26;;;;;;;;;;;;;;;21.51;36.17;102213.78;2166115;40;114033;-59
2021/04/26 03:39:57;;;;;;;;;;;;;;;21.48;36.38;102220.00;2167567;40;113913;-58
2021/04/26 03:41:28;;;;;;;;;;;;;;;21.48;36.47;102213.53;2166197;40;113701;-57
2021/04/26 03:43:00;;;;;;;;;;;;;;;21.47;36.36;102207.06;2167314;40;113710;-61
2021/04/26 03:44:32;;;;;;;;;;;;;;;21.48;36.47;102220.00;2167234;40;114268;-60
2021/04/26 03:46:03;;;;;;;;;;;;;;;21.45;36.39;102217.72;2167340;40;117406;-56
2021/04/26 03:47:34;;;;;;;;;;;;;;;21.48;36.09;102219.16;2166817;40;113662;-61
2021/04/26 03:49:05;;;;;;;;;;;;;;;21.44;36.19;102216.03;2167743;40;114070;-58
2021/04/26 03:50:36;;;;;;;;;;;;;;;21.44;36.17;102201.16;2170801;40;113952;-62
2021/04/26 03:52:08;;;;;;;;;;;;;;;21.41;36.17;102207.31;2160105;40;115321;-58
2021/04/26 03:53:39;;;;;;;;;;;;;;;21.43;36.48;102214.38;2163254;40;114876;-58
2021/04/26 03:55:12;;;;;;;;;;;;;;;21.47;36.66;102207.06;2166859;40;114795;-56
2021/04/26 03:56:43;;;;;;;;;;;;;;;21.47;36.56;102209.84;2165088;40;114924;-57
2021/04/26 03:58:14;;;;;;;;;;;;;;;21.51;36.76;102201.69;2165331;40;114807;-57
2021/04/26 03:59:45;;;;;;;;;;;;;;;21.55;36.81;102198.03;2166697;40;114967;-57
2021/04/26 04:01:16;;;;;;;;;;;;;;;21.57;36.92;102206.19;2165747;40;114948;-60
2021/04/26 04:02:47;;;;;;;;;;;;;;;21.60;37.06;102209.25;2164636;40;115049;-57
2021/04/26 04:04:18;;;;;;;;;;;;;;;21.62;36.71;102200.56;2172452;40;114411;-63
2021/04/26 04:05:49;;;;;;;;;;;;;;;21.66;36.99;102201.66;2168214;40;114861;-58
2021/04/26 04:07:21;;;;;;;;;;;;;;;21.68;37.04;102202.19;2166199;40;114066;-59
2021/04/26 04:08:52;;;;;;;;;;;;;;;21.70;37.05;102198.00;2159524;40;115220;-61
2021/04/26 04:10:23;;;;;;;;;;;;;;;21.74;36.98;102196.28;2168280;40;115441;-61
2021/04/26 04:11:54;;;;;;;;;;;;;;;21.78;37.37;102190.94;2169117;40;114955;-59
2021/04/26 04:13:25;;;;;;;;;;;;;;;21.83;37.17;102196.53;2166120;40;115612;-60
2021/04/26 04:14:56;;;;;;;;;;;;;;;21.87;37.25;102192.00;2166115;40;115909;-57
2021/04/26 04:16:28;;;;;;;;;;;;;;;21.91;37.52;102200.72;2170438;40;115837;-60
2021/04/26 04:17:59;;;;;;;;;;;;;;;21.94;37.60;102189.75;2165878;40;115624;-58
2021/04/26 04:19:31;;;;;;;;;;;;;;;21.98;37.56;102190.88;2166053;40;115911;-61
2021/04/26 04:21:02;;;;;;;;;;;;;;;22.02;37.48;102191.16;2172559;40;115775;-59
2021/04/26 04:22:33;;;;;;;;;;;;;;;22.06;37.25;102197.88;2159123;40;116270;-60
2021/04/26 04:24:05;;;;;;;;;;;;;;;22.09;36.92;102191.66;2164052;40;115443;-57
2021/04/26 04:25:36;;;;;;;;;;;;;;;22.13;37.26;102192.75;2166560;40;115480;-57
2021/04/26 04:27:07;;;;;;;;;;;;;;;22.16;36.82;102181.78;2166641;40;115570;-56
2021/04/26 04:28:38;;;;;;;;;;;;;;;22.21;37.01;102188.53;2167863;40;115836;-58
2021/04/26 04:30:11;;;;;;;;;;;;;;;22.26;36.70;102185.69;2166763;40;115560;-61
2021/04/26 04:31:42;;;;;;;;;;;;;;;22.29;36.64;102185.09;2167411;40;115471;-60
2021/04/26 04:33:13;;;;;;;;;;;;;;;22.32;36.73;102178.88;2166316;40;115464;-56
2021/04/26 04:34:44;;;;;;;;;;;;;;;22.36;36.66;102171.53;2163306;40;115608;-56
2021/04/26 04:36:15;;;;;;;;;;;;;;;22.39;36.41;102177.44;2165962;40;113819;-59
2021/04/26 04:37:46;;;;;;;;;;;;;;;22.43;36.62;102180.50;2173693;40;115914;-61
2021/04/26 04:39:18;;;;;;;;;;;;;;;22.46;36.64;102177.09;2169771;40;113907;-59
2021/04/26 04:40:49;;;;;;;;;;;;;;;22.50;36.53;102167.78;2165933;40;113743;-60
2021/04/26 04:42:20;;;;;;;;;;;;;;;22.53;36.37;102166.38;2167769;40;113933;-57
2021/04/26 04:43:52;;;;;;;;;;;;;;;22.57;36.53;102171.13;2166458;40;115269;-57
2021/04/26 04:45:23;;;;;;;;;;;;;;;22.61;36.22;102174.19;2164665;40;113905;-56
2021/04/26 04:46:54;;;;;;;;;;;;;;;22.65;36.42;102166.81;2166071;40;113827;-58
2021/04/26 04:48:26;;;;;;;;;;;;;;;22.69;36.15;102161.44;2166862;40;114441;-60
2021/04/26 04:49:57;;;;;;;;;;;;;;;22.72;35.95;102158.06;2158874;40;113730;-57
2021/04/26 04:51:28;;;;;;;;;;;;;;;22.75;35.82;102158.34;2165679;40;113721;-58
2021/04/26 04:53:00;;;;;;;;;;;;;;;22.78;35.89;102159.72;2167363;40;114133;-58
2021/04/26 04:54:31;;;;;;;;;;;;;;;22.81;35.78;102157.13;2165297;40;114027;-59
2021/04/26 04:56:02;;;;;;;;;;;;;;;;;;2167203;40;114215;-58
2021/04/26 04:57:33;;;;;;;;;;;;;;;22.89;36.27;102167.81;2166385;40;142564;-61
2021/04/26 04:59:05;;;;;;;;;;;;;;;22.92;36.04;102164.38;2167551;40;114894;-61
2021/04/26 05:00:36;;;;;;;;;;;;;;;22.97;35.64;102166.31;2166236;40;115489;-56
2021/04/26 05:02:11;;;;;;;;;;;;;;;22.99;35.69;102158.38;2167742;40;114842;-60
2021/04/26 05:03:42;;;;;;;;;;;;;;;23.02;35.42;102158.66;2167096;40;114950;-57
2021/04/26 05:05:13;;;;;;;;;;;;;;;23.07;35.40;102159.75;2165780;40;115672;-59
2021/04/26 05:06:44;;;;;;;;;;;;;;;23.09;35.21;102152.66;2166095;40;114999;-58
2021/04/26 05:08:15;;;;;;;;;;;;;;;23.12;35.68;102156.88;2168320;40;114978;-62
2021/04/26 05:09:46;;;;;;;;;;;;;;;23.15;35.69;102156.28;2161071;40;114843;-58
2021/04/26 05:11:17;;;;;;;;;;;;;;;23.18;35.58;102155.66;2165648;40;114875;-58
2021/04/26 05:12:48;;;;;;;;;;;;;;;23.21;35.51;102157.91;2167992;40;115347;-62
2021/04/26 05:14:19;;;;;;;;;;;;;;;23.23;35.23;102162.09;2166340;40;114904;-58
2021/04/26 05:15:50;;;;;;;;;;;;;;;23.26;35.71;102143.78;2172865;40;115029;-58
2021/04/26 05:17:22;;;;;;;;;;;;;;;23.29;35.89;102157.25;2171017;40;115115;-59
2021/04/26 05:18:53;;;;;;;;;;;;;;;23.32;35.59;102146.22;2159135;40;115980;-61
2021/04/26 05:20:24;;;;;;;;;;;;;;;23.35;35.50;102148.44;2172451;40;115667;-58
2021/04/26 05:21:55;;;;;;;;;;;;;;;23.38;35.18;102147.00;2170088;40;115656;-59
2021/04/26 05:23:26;;;;;;;;;;;;;;;23.40;35.17;102144.72;2168085;40;116269;-60
2021/04/26 05:24:58;;;;;;;;;;;;;;;23.42;35.08;102139.63;2166622;40;115549;-60
2021/04/26 05:26:30;;;;;;;;;;;;;;;23.45;35.06;102134.25;2166658;40;115797;-60
2021/04/26 05:28:01;;;;;;;;;;;;;;;23.47;35.30;102142.44;2167482;40;115622;-57
2021/04/26 05:29:32;;;;;;;;;;;;;;;23.49;35.05;102140.97;2166687;40;115616;-57
2021/04/26 05:31:03;;;;;;;;;;;;;;;23.52;35.02;102144.34;2165797;40;115661;-57
2021/04/26 05:32:35;;;;;;;;;;;;;;;23.57;35.09;102144.28;2165164;40;115745;-59
2021/04/26 05:34:06;;;;;;;;;;;;;;;23.59;34.84;102150.47;2166773;40;115491;-61
2021/04/26 05:35:37;;;;;;;;;;;;;;;23.62;35.16;102155.53;2165697;40;115724;-58
2021/04/26 05:37:08;;;;;;;;;;;;;;;23.64;35.10;102150.41;2161206;40;115544;-58
2021/04/26 05:38:39;;;;;;;;;;;;;;;23.66;34.96;102156.59;2166721;40;116018;-60
2021/04/26 05:40:10;;;;;;;;;;;;;;;23.68;34.80;102159.94;2167520;40;113742;-59
2021/04/26 05:41:41;;;;;;;;;;;;;;;23.70;34.98;102160.50;2164737;40;114026;-56
2021/04/26 05:43:12;;;;;;;;;;;;;;;23.72;34.73;102159.03;2166832;40;113699;-61
2021/04/26 05:44:43;;;;;;;;;;;;;;;23.74;34.92;102162.41;2165413;40;115277;-60
2021/04/26 05:46:15;;;;;;;;;;;;;;;23.78;35.50;102171.13;2167990;40;113894;-57
2021/04/26 05:47:46;;;;;;;;;;;;;;;23.79;35.11;102167.16;2167888;40;114112;-58
2021/04/26 05:49:17;;;;;;;;;;;;;;;23.82;34.79;102167.41;2165466;40;114171;-55
2021/04/26 05:50:50;;;;;;;;;;;;;;;23.84;34.77;102169.94;2163935;40;114010;-57
2021/04/26 05:52:21;;;;;;;;;;;;;;;23.86;34.84;102168.47;2173320;40;114251;-62
2021/04/26 05:53:52;;;;;;;;;;;;;;;23.87;34.66;102163.66;2168484;40;114011;-59
2021/04/26 05:55:25;;;;;;;;;;;;;;;23.90;34.54;102165.88;2165739;40;114326;-57
2021/04/26 05:56:57;;;;;;;;;;;;;;;23.91;34.68;102159.09;2165264;40;113857;-60
2021/04/26 05:58:28;;;;;;;;;;;;;;;23.92;34.73;102158.81;2159317;40;114297;-61
2021/04/26 05:59:59;;;;;;;;;;;;;;;23.96;34.83;102163.84;2170722;40;114160;-58
2021/04/26 06:01:30;;;;;;;;;;;;;;;23.95;34.66;102160.16;2172478;40;114176;-56
2021/04/26 06:03:01;;;;;;;;;;;;;;;23.97;35.06;102159.88;2166884;40;114965;-58
2021/04/26 06:04:32;;;;;;;;;;;;;;;23.98;34.71;102153.09;2160974;40;115209;-60
2021/04/26 06:06:04;;;;;;;;;;;;;;;23.99;34.88;102166.88;2171056;40;115523;-61
2021/04/26 06:07:35;;;;;;;;;;;;;;;23.99;34.62;102161.25;2168102;40;115161;-59
2021/04/26 06:09:06;;;;;;;;;;;;;;;23.99;34.82;102154.75;2166476;40;115609;-59
2021/04/26 06:10:37;;;;;;;;;;;;;;;24.00;34.49;102156.44;2164948;40;114847;-57
2021/04/26 06:12:08;;;;;;;;;;;;;;;24.03;34.58;102155.84;2167676;40;113886;-58
2021/04/26 06:13:40;;;;;;;;;;;;;;;24.00;34.53;102156.44;2167805;40;114841;-60
2021/04/26 06:15:11;;;;;;;;;;;;;;;24.00;34.43;102157.28;2168048;40;114799;-59
2021/04/26 06:16:42;;;;;;;;;;;;;;;24.00;34.28;102151.63;2168067;40;117823;-56
2021/04/26 06:18:15;;;;;;;;;;;;;;;24.00;34.37;102157.28;2166028;40;114984;-62
2021/04/26 06:19:46;;;;;;;;;;;;;;;24.00;34.24;102164.91;2160350;40;113985;-58
2021/04/26 06:21:17;;;;;;;;;;;;;;;24.00;34.09;102156.44;2168812;40;114845;-60
2021/04/26 06:22:48;;;;;;;;;;;;;;;24.01;34.38;102153.31;2171257;40;114940;-56
2021/04/26 06:24:19;;;;;;;;;;;;;;;23.98;34.54;102142.66;2166824;40;115562;-61
2021/04/26 06:25:50;;;;;;;;;;;;;;;23.97;34.37;102146.59;2166556;40;115447;-60
2021/04/26 06:27:21;;;;;;;;;;;;;;;23.95;34.32;102154.53;2167944;40;115856;-60
2021/04/26 06:28:52;;;;;;;;;;;;;;;23.96;34.44;102155.38;2165499;40;115587;-61
2021/04/26 06:30:23;;;;;;;;;;;;;;;23.94;34.32;102158.47;2165869;40;114946;-58
2021/04/26 06:31:54;;;;;;;;;;;;;;;23.94;34.30;102162.16;2166648;40;115525;-58
2021/04/26 06:33:26;;;;;;;;;;;;;;;23.93;34.45;102165.28;2168162;40;115904;-59
2021/04/26 06:34:57;;;;;;;;;;;;;;;23.93;34.60;102162.47;2165228;40;116071;-58
2021/04/26 06:36:28;;;;;;;;;;;;;;;23.91;34.53;102165.59;2168031;40;114977;-56
2021/04/26 06:37:59;;;;;;;;;;;;;;;23.91;34.41;102165.59;2164168;40;115705;-58
2021/04/26 06:39:30;;;;;;;;;;;;;;;23.89;34.43;102158.56;2163319;40;115808;-60
2021/04/26 06:41:02;;;;;;;;;;;;;;;23.86;34.22;102161.97;2165590;40;116536;-57
2021/04/26 06:42:33;;;;;;;;;;;;;;;23.76;32.77;102164.91;2161013;40;114819;-59
2021/04/26 06:44:04;;;;;;;;;;;;;;;23.69;29.31;102156.84;2165100;40;115574;-59
2021/04/26 06:45:35;;;;;;;;;;;;;;;23.66;29.06;102159.44;2165415;40;114121;-56
2021/04/26 06:47:07;;;;;;;;;;;;;;;23.56;28.94;102157.56;2160549;40;114180;-61
2021/04/26 06:48:38;;;;;;;;;;;;;;;23.50;27.26;102155.94;2165405;40;114152;-59
2021/04/26 06:50:09;;;;;;;;;;;;;;;23.38;27.50;102161.97;2167108;40;113986;-58
2021/04/26 06:51:40;;;;;;;;;;;;;;;23.37;27.44;102159.44;2168092;40;113814;-58
2021/04/26 06:53:12;;;;;;;;;;;;;;;23.02;27.43;102164.28;2166330;40;113948;-58
2021/04/26 06:54:43;;;;;;;;;;;;;;;23.12;27.34;102162.53;2162135;40;114011;-60
2021/04/26 06:56:14;;;;;;;;;;;;;;;23.15;28.31;102161.91;2166454;40;113980;-60
2021/04/26 06:57:46;;;;;;;;;;;;;;;23.14;28.87;102152.63;2172919;40;114544;-58
2021/04/26 06:59:18;;;;;;;;;;;;;;;23.13;29.22;102159.38;2168041;40;114445;-59
2021/04/26 07:00:49;;;;;;;;;;;;;;;23.09;29.07;102152.66;2164422;40;114063;-60
2021/04/26 07:02:20;;;;;;;;;;;;;;;23.09;29.21;102154.63;2171124;40;114430;-58
2021/04/26 07:03:51;;;;;;;;;;;;;;;23.10;29.46;102159.13;2168078;40;113972;-55
2021/04/26 07:05:23;;;;;;;;;;;;;;;23.10;29.34;102156.31;2170636;40;114131;-60
2021/04/26 07:06:54;;;;;;;;;;;;;;;23.12;29.67;102160.53;2164676;40;114949;-58
2021/04/26 07:08:25;;;;;;;;;;;;;;;23.07;29.42;102145.66;2167509;40;115724;-59
2021/04/26 07:09:57;;;;;;;;;;;;;;;23.07;29.58;102146.50;2166731;40;114840;-55
2021/04/26 07:11:28;;;;;;;;;;;;;;;22.98;29.71;102149.13;2167127;40;114870;-56
2021/04/26 07:12:59;;;;;;;;;;;;;;;23.03;30.34;102145.41;2164800;40;114932;-56
2021/04/26 07:14:30;;;;;;;;;;;;;;;22.99;30.23;102141.47;2164886;40;114813;-60
2021/04/26 07:16:02;;;;;;;;;;;;;;;23.01;30.11;102139.22;2168000;40;115686;-57
2021/04/26 07:17:34;;;;;;;;;;;;;;;22.96;30.45;102142.91;2167639;40;114023;-58
2021/04/26 07:19:05;;;;;;;;;;;;;;;23.00;30.06;102145.97;2173654;40;115025;-57
2021/04/26 07:20:37;;;;;;;;;;;;;;;22.99;30.22;102147.94;2168666;40;115660;-58
2021/04/26 07:22:09;;;;;;;;;;;;;;;22.97;29.80;102144.59;2168013;40;115218;-55
2021/04/26 07:23:40;;;;;;;;;;;;;;;22.94;29.83;102152.81;2165939;40;114955;-62
2021/04/26 07:25:12;;;;;;;;;;;;;;;22.90;29.47;102149.72;2173244;40;114041;-59
2021/04/26 07:26:43;;;;;;;;;;;;;;;22.90;29.98;102148.88;2165784;40;115254;-59
2021/04/26 07:28:14;;;;;;;;;;;;;;;22.92;30.15;102155.06;2164177;40;115663;-60
2021/04/26 07:29:45;;;;;;;;;;;;;;;22.92;30.29;102146.63;2169293;40;115529;-57
2021/04/26 07:31:16;;;;;;;;;;;;;;;22.95;30.28;102146.88;2168413;40;114956;-57
2021/04/26 07:32:48;;;;;;;;;;;;;;;22.92;30.33;102141.84;2167258;40;115648;-57
2021/04/26 07:34:19;;;;;;;;;;;;;;;22.90;30.31;102138.44;2167613;40;115527;-55
2021/04/26 07:35:50;;;;;;;;;;;;;;;22.86;30.27;102144.97;2173195;40;115604;-61
2021/04/26 07:37:21;;;;;;;;;;;;;;;22.84;30.19;102144.44;2167927;40;115531;-56
2021/04/26 07:38:52;;;;;;;;;;;;;;;22.79;30.45;102147.31;2162948;40;115655;-59
2021/04/26 07:40:23;;;;;;;;;;;;;;;22.80;30.06;102135.75;2163934;40;116346;-56
2021/04/26 07:41:55;;;;;;;;;;;;;;;22.80;30.20;102134.91;2172103;40;116550;-57
2021/04/26 07:43:26;;;;;;;;;;;;;;;22.80;30.54;102143.34;2169888;40;115489;-60
2021/04/26 07:44:57;;;;;;;;;;;;;;;22.80;30.95;102144.22;2159036;40;115863;-58
2021/04/26 07:46:28;;;;;;;;;;;;;;;22.79;30.99;102142.53;2163126;40;115874;-57